createdAt,value
2022-11-26T00:01:01.740Z,10.13
2022-11-26T00:03:29.026Z,10.05
2022-11-26T00:05:57.898Z,9.97
2022-11-26T00:08:33.598Z,9.86
2022-11-26T00:11:03.412Z,10.04
2022-11-26T00:13:31.892Z,9.99
2022-11-26T00:15:59.140Z,9.97
2022-11-26T00:18:26.786Z,10.01
2022-11-26T00:20:56.199Z,9.87
2022-11-26T00:23:25.470Z,9.97
2022-11-26T00:25:58.297Z,9.90
2022-11-26T00:28:30.739Z,9.92
2022-11-26T00:31:00.040Z,10.07
2022-11-26T00:33:28.772Z,10.15
2022-11-26T00:35:59.389Z,10.12
2022-11-26T00:38:26.591Z,10.05
2022-11-26T00:40:53.807Z,10.15
2022-11-26T00:43:21.083Z,9.99
2022-11-26T00:45:50.453Z,9.93
2022-11-26T00:48:18.032Z,9.99
2022-11-26T00:50:48.438Z,9.67
2022-11-26T00:53:18.194Z,9.98
2022-11-26T00:55:48.069Z,9.93
2022-11-26T00:58:28.030Z,9.87
2022-11-26T01:01:00.213Z,9.85
2022-11-26T01:03:27.513Z,9.93
2022-11-26T01:05:57.874Z,9.97
2022-11-26T01:08:35.450Z,9.79
2022-11-26T01:11:04.709Z,9.75
2022-11-26T01:13:32.801Z,9.68
2022-11-26T01:16:01.250Z,9.71
2022-11-26T01:18:29.145Z,9.77
2022-11-26T01:20:56.405Z,9.78
2022-11-26T01:23:23.665Z,9.71
2022-11-26T01:25:50.832Z,9.58
2022-11-26T01:28:19.371Z,9.44
2022-11-26T01:30:46.638Z,9.62
2022-11-26T01:33:13.938Z,9.52
2022-11-26T01:35:41.177Z,9.67
2022-11-26T01:38:12.865Z,9.67
2022-11-26T01:40:49.646Z,9.54
2022-11-26T01:43:25.269Z,9.52
2022-11-26T01:45:52.570Z,9.54
2022-11-26T01:48:28.719Z,9.54
2022-11-26T01:51:07.198Z,9.67
2022-11-26T01:54:11.986Z,9.61
2022-11-26T01:56:41.715Z,9.61
2022-11-26T01:59:28.366Z,9.54
2022-11-26T02:01:58.030Z,9.61
2022-11-26T02:04:27.506Z,9.55
2022-11-26T02:06:56.434Z,9.59
2022-11-26T02:09:24.389Z,9.43
2022-11-26T02:11:51.860Z,9.42
2022-11-26T02:14:21.991Z,9.47
2022-11-26T02:17:21.370Z,9.42
2022-11-26T02:20:19.939Z,9.46
2022-11-26T02:22:49.918Z,9.38
2022-11-26T02:25:48.060Z,9.36
2022-11-26T02:28:43.050Z,9.33
2022-11-26T02:31:47.957Z,9.23
2022-11-26T02:34:18.388Z,9.32
2022-11-26T02:36:55.701Z,9.33
2022-11-26T02:39:25.282Z,9.42
2022-11-26T02:41:58.309Z,9.36
2022-11-26T02:44:32.524Z,9.23
2022-11-26T02:47:05.214Z,9.01
2022-11-26T02:49:33.539Z,9.13
2022-11-26T02:52:03.665Z,8.98
2022-11-26T02:54:30.748Z,8.85
2022-11-26T02:56:58.305Z,8.94
2022-11-26T02:59:26.064Z,9.05
2022-11-26T03:02:03.812Z,9.01
2022-11-26T03:04:34.872Z,8.83
2022-11-26T03:07:04.402Z,8.79
2022-11-26T03:09:42.889Z,9.06
2022-11-26T03:12:11.105Z,8.97
2022-11-26T03:14:38.764Z,8.95
2022-11-26T03:17:06.238Z,9.09
2022-11-26T03:19:33.511Z,9.13
2022-11-26T03:22:00.720Z,9.23
2022-11-26T03:24:27.875Z,9.05
2022-11-26T03:26:55.087Z,8.99
2022-11-26T03:29:22.276Z,9.06
2022-11-26T03:31:49.621Z,9.18
2022-11-26T03:34:16.930Z,9.21
2022-11-26T03:36:44.382Z,9.20
2022-11-26T03:39:11.620Z,9.35
2022-11-26T03:41:39.325Z,9.12
2022-11-26T03:44:06.519Z,9.18
2022-11-26T03:46:33.732Z,9.22
2022-11-26T03:49:00.928Z,9.20
2022-11-26T03:51:28.221Z,9.36
2022-11-26T03:53:55.439Z,9.36
2022-11-26T03:56:22.670Z,9.25
2022-11-26T03:58:49.937Z,9.19
2022-11-26T04:01:17.206Z,9.03
2022-11-26T04:03:44.514Z,9.03
2022-11-26T04:06:12.766Z,9.12
2022-11-26T04:08:39.980Z,9.05
2022-11-26T04:11:07.173Z,9.05
2022-11-26T04:13:34.734Z,8.96
2022-11-26T04:16:01.933Z,9.01
2022-11-26T04:18:29.148Z,9.07
2022-11-26T04:20:56.480Z,9.01
2022-11-26T04:23:23.658Z,9.10
2022-11-26T04:25:50.904Z,9.17
2022-11-26T04:28:18.119Z,9.17
2022-11-26T04:30:45.361Z,9.00
2022-11-26T04:33:12.581Z,9.08
2022-11-26T04:35:39.839Z,8.93
2022-11-26T04:38:07.153Z,8.94
2022-11-26T04:40:34.534Z,8.94
2022-11-26T04:43:01.819Z,8.78
2022-11-26T04:45:29.244Z,8.63
2022-11-26T04:47:56.567Z,8.70
2022-11-26T04:50:24.168Z,8.86
2022-11-26T04:52:51.395Z,9.03
2022-11-26T04:55:18.937Z,8.84
2022-11-26T04:57:49.065Z,8.78
2022-11-26T05:00:16.955Z,8.69
2022-11-26T05:02:44.343Z,8.59
2022-11-26T05:05:13.060Z,8.47
2022-11-26T05:07:40.782Z,8.25
2022-11-26T05:10:08.914Z,8.30
2022-11-26T05:12:36.815Z,8.49
2022-11-26T05:15:04.480Z,8.50
2022-11-26T05:17:32.502Z,8.44
2022-11-26T05:19:59.655Z,8.48
2022-11-26T05:22:26.908Z,8.66
2022-11-26T05:24:54.195Z,8.58
2022-11-26T05:27:21.417Z,8.33
2022-11-26T05:29:48.652Z,8.10
2022-11-26T05:32:16.160Z,7.88
2022-11-26T05:34:43.363Z,8.23
2022-11-26T05:37:10.803Z,8.16
2022-11-26T05:39:38.008Z,8.32
2022-11-26T05:42:09.299Z,8.25
2022-11-26T05:44:37.953Z,8.33
2022-11-26T05:47:05.479Z,8.25
2022-11-26T05:49:32.871Z,8.27
2022-11-26T05:52:00.189Z,8.39
2022-11-26T05:54:27.374Z,8.51
2022-11-26T05:56:59.956Z,8.67
2022-11-26T05:59:27.881Z,8.68
2022-11-26T06:01:55.123Z,8.70
2022-11-26T06:04:22.678Z,8.59
2022-11-26T06:06:50.092Z,8.58
2022-11-26T06:09:17.359Z,8.80
2022-11-26T06:11:44.575Z,8.86
2022-11-26T06:14:12.157Z,8.91
2022-11-26T06:16:39.431Z,8.69
2022-11-26T06:19:06.752Z,8.84
2022-11-26T06:21:34.076Z,8.83
2022-11-26T06:24:01.274Z,8.95
2022-11-26T06:26:28.547Z,8.99
2022-11-26T06:28:55.727Z,9.05
2022-11-26T06:31:23.039Z,8.81
2022-11-26T06:33:55.153Z,8.87
2022-11-26T06:36:23.227Z,8.77
2022-11-26T06:38:50.599Z,8.60
2022-11-26T06:41:20.829Z,8.48
2022-11-26T06:43:48.180Z,8.72
2022-11-26T06:46:15.620Z,8.52
2022-11-26T06:48:43.064Z,8.52
2022-11-26T06:51:13.464Z,8.49
2022-11-26T06:53:41.077Z,8.63
2022-11-26T06:56:17.750Z,8.73
2022-11-26T06:58:46.928Z,8.66
2022-11-26T07:01:17.227Z,8.56
2022-11-26T07:03:44.680Z,8.51
2022-11-26T07:06:20.413Z,8.59
2022-11-26T07:08:48.626Z,8.64
2022-11-26T07:11:16.576Z,8.61
2022-11-26T07:13:43.941Z,8.45
2022-11-26T07:16:11.497Z,8.33
2022-11-26T07:18:38.904Z,8.14
2022-11-26T07:21:11.696Z,8.05
2022-11-26T07:23:39.720Z,7.86
2022-11-26T07:26:07.988Z,8.11
2022-11-26T07:28:35.893Z,8.18
2022-11-26T07:31:05.444Z,8.23
2022-11-26T07:33:32.719Z,8.09
2022-11-26T07:36:08.467Z,8.35
2022-11-26T07:38:35.748Z,8.51
2022-11-26T07:41:04.997Z,8.57
2022-11-26T07:43:34.889Z,8.46
2022-11-26T07:46:03.577Z,8.51
2022-11-26T07:48:31.930Z,8.56
2022-11-26T07:51:00.049Z,8.55
2022-11-26T07:53:32.050Z,8.56
2022-11-26T07:55:59.312Z,8.34
2022-11-26T07:58:29.308Z,8.25
2022-11-26T08:00:56.547Z,8.21
2022-11-26T08:03:23.707Z,8.20
2022-11-26T08:05:51.164Z,8.31
2022-11-26T08:08:18.383Z,8.37
2022-11-26T08:10:45.590Z,8.36
2022-11-26T08:13:13.038Z,8.26
2022-11-26T08:15:40.250Z,8.17
2022-11-26T08:18:07.461Z,8.14
2022-11-26T08:20:34.674Z,8.21
2022-11-26T08:23:01.909Z,8.33
2022-11-26T08:25:29.315Z,8.33
2022-11-26T08:27:56.591Z,8.30
2022-11-26T08:30:23.815Z,8.25
2022-11-26T08:32:51.167Z,8.66
2022-11-26T08:35:18.396Z,8.68
2022-11-26T08:37:45.554Z,8.69
2022-11-26T08:40:14.165Z,8.68
2022-11-26T08:42:41.777Z,8.88
2022-11-26T08:45:09.316Z,8.43
2022-11-26T08:47:36.519Z,8.45
2022-11-26T08:50:04.864Z,8.15
2022-11-26T08:52:32.075Z,8.22
2022-11-26T08:54:59.455Z,8.08
2022-11-26T08:57:26.748Z,8.01
2022-11-26T08:59:55.921Z,7.87
2022-11-26T09:02:23.495Z,8.74
2022-11-26T09:04:50.729Z,8.87
2022-11-26T09:07:18.015Z,8.79
2022-11-26T09:09:45.331Z,8.89
2022-11-26T09:12:12.589Z,9.05
2022-11-26T09:14:40.899Z,9.03
2022-11-26T09:17:09.950Z,9.13
2022-11-26T09:19:37.121Z,9.22
2022-11-26T09:22:04.495Z,8.89
2022-11-26T09:24:31.730Z,8.74
2022-11-26T09:27:04.152Z,8.60
2022-11-26T09:29:34.605Z,8.62
2022-11-26T09:32:22.531Z,8.54
2022-11-26T09:34:49.009Z,8.41
2022-11-26T09:37:16.179Z,8.37
2022-11-26T09:39:43.453Z,8.36
2022-11-26T09:42:23.066Z,8.55
2022-11-26T09:44:57.224Z,8.57
2022-11-26T09:47:28.971Z,8.56
2022-11-26T09:49:59.536Z,8.39
2022-11-26T09:52:31.101Z,8.43
2022-11-26T09:55:10.218Z,8.58
2022-11-26T09:58:05.172Z,8.71
2022-11-26T10:00:42.468Z,8.85
2022-11-26T10:03:16.237Z,8.92
2022-11-26T10:05:55.866Z,8.83
2022-11-26T10:09:00.923Z,8.72
2022-11-26T10:11:49.108Z,8.75
2022-11-26T10:14:44.330Z,8.68
2022-11-26T10:17:11.799Z,8.57
2022-11-26T10:19:58.143Z,8.66
2022-11-26T10:22:34.437Z,8.72
2022-11-26T10:25:03.859Z,8.84
2022-11-26T10:27:34.110Z,8.63
2022-11-26T10:30:02.629Z,8.59
2022-11-26T10:32:39.359Z,8.78
2022-11-26T10:35:07.156Z,8.75
2022-11-26T10:37:34.426Z,8.65
2022-11-26T10:40:20.214Z,8.68
2022-11-26T10:43:02.059Z,8.65
2022-11-26T10:45:40.984Z,8.62
2022-11-26T10:48:14.671Z,8.73
2022-11-26T10:50:48.042Z,8.91
2022-11-26T10:53:21.402Z,8.88
2022-11-26T10:55:49.706Z,8.70
2022-11-26T10:58:20.580Z,8.61
2022-11-26T11:00:50.818Z,8.97
2022-11-26T11:03:38.164Z,8.88
2022-11-26T11:06:12.832Z,8.92
2022-11-26T11:08:40.084Z,8.76
2022-11-26T11:11:19.097Z,9.03
2022-11-26T11:13:47.520Z,9.37
2022-11-26T11:16:20.249Z,9.24
2022-11-26T11:18:58.841Z,9.47
2022-11-26T11:21:34.249Z,9.57
2022-11-26T11:24:09.250Z,9.42
2022-11-26T11:27:03.172Z,9.42
2022-11-26T11:29:35.344Z,9.40
2022-11-26T11:32:05.702Z,9.50
2022-11-26T11:34:42.455Z,9.58
2022-11-26T11:37:20.852Z,9.50
2022-11-26T11:40:04.396Z,9.25
2022-11-26T11:42:32.521Z,9.41
2022-11-26T11:45:00.594Z,9.35
2022-11-26T11:47:31.227Z,9.52
2022-11-26T11:50:20.264Z,9.63
2022-11-26T11:53:14.878Z,9.67
2022-11-26T11:55:50.749Z,9.70
2022-11-26T11:58:23.951Z,9.65
2022-11-26T12:01:00.169Z,9.71
2022-11-26T12:03:45.711Z,9.63
2022-11-26T12:09:39.197Z,9.89
2022-11-26T12:12:26.587Z,9.85
2022-11-26T12:15:00.647Z,9.98
2022-11-26T12:17:36.060Z,10.10
2022-11-26T12:20:08.967Z,9.98
2022-11-26T12:22:48.275Z,9.99
2022-11-26T12:25:36.673Z,9.57
2022-11-26T12:28:22.678Z,9.64
2022-11-26T12:31:01.598Z,9.63
2022-11-26T12:33:35.886Z,9.69
2022-11-26T12:36:12.504Z,9.91
2022-11-26T12:38:45.414Z,9.88
2022-11-26T12:41:52.625Z,9.91
2022-11-26T12:44:41.568Z,10.00
2022-11-26T12:47:38.096Z,9.99
2022-11-26T12:50:05.668Z,10.08
2022-11-26T12:52:42.347Z,10.01
2022-11-26T12:56:00.863Z,9.96
2022-11-26T12:58:46.336Z,9.84
2022-11-26T13:01:13.695Z,9.80
2022-11-26T13:03:41.477Z,10.11
2022-11-26T13:06:14.674Z,10.23
2022-11-26T13:09:09.280Z,10.00
2022-11-26T13:11:39.486Z,10.04
2022-11-26T13:14:12.454Z,10.16
2022-11-26T13:17:01.971Z,9.85
2022-11-26T13:19:41.962Z,9.93
2022-11-26T13:22:18.374Z,10.00
2022-11-26T13:24:53.269Z,10.01
2022-11-26T13:27:58.238Z,10.20
2022-11-26T13:30:38.938Z,10.14
2022-11-26T13:33:27.126Z,10.16
2022-11-26T13:36:24.312Z,10.30
2022-11-26T13:39:10.344Z,10.39
2022-11-26T13:41:56.168Z,10.48
2022-11-26T13:45:00.928Z,10.49
2022-11-26T13:47:30.936Z,10.53
2022-11-26T13:50:13.220Z,10.68
2022-11-26T13:52:53.732Z,10.56
2022-11-26T13:55:37.632Z,10.66
2022-11-26T13:58:06.414Z,10.60
2022-11-26T14:00:35.338Z,10.45
2022-11-26T14:03:03.340Z,10.50
2022-11-26T14:05:48.849Z,10.64
2022-11-26T14:08:36.551Z,10.80
2022-11-26T14:11:04.263Z,10.91
2022-11-26T14:13:31.750Z,10.63
2022-11-26T14:16:09.600Z,10.27
2022-11-26T14:18:49.206Z,10.28
2022-11-26T14:21:17.632Z,10.46
2022-11-26T14:23:47.572Z,10.36
2022-11-26T14:26:31.298Z,10.36
2022-11-26T14:29:07.696Z,10.40
2022-11-26T14:31:38.470Z,11.40
2022-11-26T14:34:19.102Z,17.74
2022-11-26T14:36:55.444Z,17.43
2022-11-26T14:39:22.741Z,14.88
2022-11-26T14:41:53.984Z,13.89
2022-11-26T14:44:23.066Z,12.80
2022-11-26T14:46:54.239Z,11.92
2022-11-26T14:49:21.398Z,11.58
2022-11-26T14:51:53.437Z,11.44
2022-11-26T14:54:35.468Z,11.35
2022-11-26T14:57:32.077Z,11.03
2022-11-26T15:00:01.461Z,11.01
2022-11-26T15:02:30.861Z,11.07
2022-11-26T15:05:00.622Z,11.14
2022-11-26T15:07:29.415Z,11.06
2022-11-26T15:10:06.558Z,10.93
2022-11-26T15:12:35.478Z,10.92
2022-11-26T15:15:03.756Z,11.06
2022-11-26T15:17:34.157Z,11.03
2022-11-26T15:20:05.332Z,11.06
2022-11-26T15:22:40.378Z,10.93
2022-11-26T15:25:22.378Z,11.00
2022-11-26T15:28:01.771Z,11.07
2022-11-26T15:30:31.873Z,11.30
2022-11-26T15:33:02.130Z,11.07
2022-11-26T15:35:30.324Z,11.04
2022-11-26T15:37:57.658Z,11.00
2022-11-26T15:40:31.876Z,10.82
2022-11-26T15:43:06.550Z,10.75
2022-11-26T15:45:39.481Z,10.80
2022-11-26T15:48:27.087Z,10.76
2022-11-26T15:50:57.491Z,10.76
2022-11-26T15:53:28.539Z,10.81
2022-11-26T15:55:56.184Z,10.59
2022-11-26T15:58:33.381Z,10.46
2022-11-26T16:01:02.303Z,10.32
2022-11-26T16:03:36.176Z,10.36
2022-11-26T16:06:06.694Z,10.23
2022-11-26T16:08:34.508Z,10.23
2022-11-26T16:11:04.644Z,10.27
2022-11-26T16:13:32.471Z,10.32
2022-11-26T16:16:01.526Z,10.41
2022-11-26T16:18:35.339Z,10.43
2022-11-26T16:21:16.962Z,10.58
2022-11-26T16:23:52.221Z,10.77
2022-11-26T16:26:19.795Z,10.66
2022-11-26T16:28:47.553Z,10.67
2022-11-26T16:31:15.595Z,10.58
2022-11-26T16:33:43.220Z,10.68
2022-11-26T16:36:16.946Z,10.83
2022-11-26T16:38:44.308Z,10.94
2022-11-26T16:41:13.027Z,10.87
2022-11-26T16:43:40.381Z,10.86
2022-11-26T16:46:14.230Z,10.80
2022-11-26T16:48:42.506Z,10.94
2022-11-26T16:51:09.896Z,11.05
2022-11-26T16:53:37.362Z,11.07
2022-11-26T16:56:05.462Z,10.89
2022-11-26T16:58:35.197Z,10.79
2022-11-26T17:01:02.701Z,10.48
2022-11-26T17:03:33.128Z,10.70
2022-11-26T17:06:03.537Z,10.81
2022-11-26T17:08:30.837Z,10.46
2022-11-26T17:10:58.176Z,10.54
2022-11-26T17:13:25.426Z,10.78
2022-11-26T17:15:52.683Z,10.81
2022-11-26T17:18:22.414Z,10.85
2022-11-26T17:20:50.715Z,10.67
2022-11-26T17:23:18.282Z,10.67
2022-11-26T17:25:46.910Z,10.91
2022-11-26T17:28:15.042Z,10.98
2022-11-26T17:30:43.676Z,10.80
2022-11-26T17:33:11.203Z,10.71
2022-11-26T17:35:38.968Z,10.59
2022-11-26T17:38:18.151Z,10.68
2022-11-26T17:40:46.330Z,10.75
2022-11-26T17:43:14.088Z,10.84
2022-11-26T17:45:41.850Z,10.74
2022-11-26T17:48:13.531Z,10.61
2022-11-26T17:50:41.357Z,10.48
2022-11-26T17:53:08.658Z,10.33
2022-11-26T17:55:35.923Z,10.57
2022-11-26T17:58:03.144Z,10.59
2022-11-26T18:00:30.810Z,10.69
2022-11-26T18:02:58.370Z,10.97
2022-11-26T18:05:25.861Z,10.92
2022-11-26T18:07:53.206Z,11.02
2022-11-26T18:10:21.951Z,10.94
2022-11-26T18:12:51.850Z,10.94
2022-11-26T18:15:23.861Z,10.69
2022-11-26T18:17:53.638Z,10.58
2022-11-26T18:20:27.790Z,10.81
2022-11-26T18:22:57.436Z,10.73
2022-11-26T18:25:25.252Z,10.80
2022-11-26T18:27:52.930Z,10.69
2022-11-26T18:30:21.015Z,10.58
2022-11-26T18:32:48.315Z,10.50
2022-11-26T18:35:15.525Z,10.35
2022-11-26T18:37:43.066Z,10.48
2022-11-26T18:40:13.453Z,10.30
2022-11-26T18:42:40.848Z,10.33
2022-11-26T18:45:09.885Z,10.13
2022-11-26T18:47:37.692Z,10.35
2022-11-26T18:50:06.044Z,10.51
2022-11-26T18:52:33.503Z,10.38
2022-11-26T18:55:04.547Z,10.35
2022-11-26T18:57:32.418Z,10.15
2022-11-26T18:59:59.692Z,9.81
2022-11-26T19:02:27.372Z,10.00
2022-11-26T19:04:54.609Z,10.15
2022-11-26T19:07:22.001Z,10.22
2022-11-26T19:09:49.386Z,10.24
2022-11-26T19:12:16.548Z,10.30
2022-11-26T19:14:43.885Z,10.06
2022-11-26T19:17:11.222Z,10.16
2022-11-26T19:19:38.789Z,9.88
2022-11-26T19:22:06.261Z,9.81
2022-11-26T19:24:33.569Z,10.02
2022-11-26T19:27:00.782Z,10.09
2022-11-26T19:29:28.032Z,10.18
2022-11-26T19:31:55.231Z,10.18
2022-11-26T19:34:22.500Z,10.18
2022-11-26T19:36:50.281Z,10.29
2022-11-26T19:39:18.289Z,10.33
2022-11-26T19:41:45.591Z,10.02
2022-11-26T19:44:12.824Z,10.00
2022-11-26T19:46:41.412Z,10.26
2022-11-26T19:49:12.257Z,10.35
2022-11-26T19:51:40.169Z,10.19
2022-11-26T19:54:07.627Z,10.20
2022-11-26T19:56:35.285Z,10.09
2022-11-26T19:59:03.252Z,10.03
2022-11-26T20:01:32.273Z,9.88
2022-11-26T20:04:01.462Z,10.00
2022-11-26T20:06:30.207Z,10.07
2022-11-26T20:09:00.693Z,9.84
2022-11-26T20:11:29.035Z,9.91
2022-11-26T20:13:57.443Z,9.79
2022-11-26T20:16:27.114Z,9.93
2022-11-26T20:18:55.273Z,9.68
2022-11-26T20:21:26.069Z,9.70
2022-11-26T20:23:54.765Z,9.70
2022-11-26T20:26:27.942Z,9.59
2022-11-26T20:28:56.990Z,9.80
2022-11-26T20:31:24.640Z,9.69
2022-11-26T20:33:53.125Z,9.72
2022-11-26T20:36:22.879Z,9.35
2022-11-26T20:38:55.022Z,9.32
2022-11-26T20:41:23.705Z,9.17
2022-11-26T20:43:56.565Z,9.47
2022-11-26T20:46:26.364Z,9.35
2022-11-26T20:48:53.820Z,8.91
2022-11-26T20:51:22.144Z,9.16
2022-11-26T20:53:50.914Z,9.42
2022-11-26T20:56:21.646Z,9.56
2022-11-26T20:58:49.683Z,9.38
2022-11-26T21:01:24.445Z,9.15
2022-11-26T21:03:52.817Z,9.01
2022-11-26T21:06:29.030Z,9.11
2022-11-26T21:08:59.731Z,9.25
2022-11-26T21:11:30.212Z,9.05
2022-11-26T21:13:58.710Z,9.37
2022-11-26T21:16:26.145Z,9.68
2022-11-26T21:18:54.724Z,9.76
2022-11-26T21:21:23.141Z,9.68
2022-11-26T21:23:50.834Z,9.78
2022-11-26T21:26:20.147Z,9.76
2022-11-26T21:28:55.527Z,9.62
2022-11-26T21:31:23.200Z,9.78
2022-11-26T21:33:59.003Z,10.00
2022-11-26T21:36:27.010Z,9.09
2022-11-26T21:38:54.306Z,9.09
2022-11-26T21:41:22.237Z,9.17
2022-11-26T21:43:49.754Z,9.06
2022-11-26T21:46:23.115Z,8.95
2022-11-26T21:48:52.973Z,8.86
2022-11-26T21:51:20.476Z,8.88
2022-11-26T21:53:49.624Z,9.15
2022-11-26T21:56:19.384Z,9.13
2022-11-26T21:58:46.849Z,8.99
2022-11-26T22:01:33.890Z,8.75
2022-11-26T22:04:09.568Z,8.94
2022-11-26T22:06:37.132Z,8.90
2022-11-26T22:09:05.235Z,8.68
2022-11-26T22:11:35.911Z,8.74
2022-11-26T22:14:04.249Z,8.75
2022-11-26T22:16:31.594Z,8.86
2022-11-26T22:19:00.059Z,8.61
2022-11-26T22:21:34.405Z,8.71
2022-11-26T22:24:03.550Z,8.60
2022-11-26T22:26:32.015Z,8.44
2022-11-26T22:28:59.767Z,8.21
2022-11-26T22:31:35.604Z,8.39
2022-11-26T22:34:14.105Z,8.44
2022-11-26T22:36:43.619Z,8.62
2022-11-26T22:39:13.253Z,8.65
2022-11-26T22:41:41.174Z,8.80
2022-11-26T22:44:09.128Z,8.91
2022-11-26T22:46:38.435Z,9.10
2022-11-26T22:49:07.891Z,9.07
2022-11-26T22:51:35.336Z,8.71
2022-11-26T22:54:05.578Z,8.47
2022-11-26T22:56:33.585Z,8.54
2022-11-26T22:59:01.481Z,8.60
2022-11-26T23:01:31.500Z,8.71
2022-11-26T23:04:00.779Z,8.75
2022-11-26T23:06:29.438Z,8.61
2022-11-26T23:08:58.474Z,8.74
2022-11-26T23:11:28.894Z,8.83
2022-11-26T23:13:56.746Z,8.69
2022-11-26T23:16:25.523Z,8.74
2022-11-26T23:18:56.831Z,8.80
2022-11-26T23:21:33.072Z,8.65
2022-11-26T23:24:00.811Z,8.52
2022-11-26T23:26:30.590Z,8.48
2022-11-26T23:28:59.522Z,8.39
2022-11-26T23:31:29.945Z,8.52
2022-11-26T23:33:57.697Z,8.28
2022-11-26T23:36:25.991Z,8.39
2022-11-26T23:38:54.024Z,8.37
2022-11-26T23:41:21.741Z,8.12
2022-11-26T23:43:48.990Z,8.26
2022-11-26T23:46:19.304Z,8.40
2022-11-26T23:48:47.492Z,8.51
2022-11-26T23:51:17.788Z,8.43
2022-11-26T23:53:46.151Z,8.32
2022-11-26T23:56:19.061Z,8.31
2022-11-26T23:58:51.039Z,8.32
